createdAt,value
2023-03-11T00:00:47.451Z,6.00
2023-03-11T00:03:16.994Z,5.60
2023-03-11T00:05:46.197Z,6.80
2023-03-11T00:08:21.296Z,4.90
2023-03-11T00:10:58.820Z,5.80
2023-03-11T00:13:28.900Z,5.60
2023-03-11T00:15:57.325Z,5.30
2023-03-11T00:18:31.818Z,5.50
2023-03-11T00:21:01.080Z,4.90
2023-03-11T00:23:29.726Z,6.30
2023-03-11T00:25:59.960Z,4.80
2023-03-11T00:28:28.373Z,6.80
2023-03-11T00:30:57.505Z,5.70
2023-03-11T00:33:25.963Z,5.60
2023-03-11T00:35:58.605Z,6.10
2023-03-11T00:38:27.586Z,5.50
2023-03-11T00:40:55.975Z,6.20
2023-03-11T00:43:24.227Z,6.20
2023-03-11T00:45:52.680Z,5.60
2023-03-11T00:48:23.665Z,5.10
2023-03-11T00:50:51.949Z,5.40
2023-03-11T00:53:24.884Z,5.90
2023-03-11T00:55:53.305Z,5.70
2023-03-11T00:58:23.848Z,5.90
2023-03-11T01:00:55.388Z,4.70
2023-03-11T01:03:24.011Z,5.90
2023-03-11T01:05:54.835Z,5.00
2023-03-11T01:08:24.274Z,4.60
2023-03-11T01:10:53.198Z,5.00
2023-03-11T01:13:21.933Z,5.20
2023-03-11T01:15:50.517Z,6.70
2023-03-11T01:18:18.545Z,5.20
2023-03-11T01:20:46.811Z,5.10
2023-03-11T01:23:15.404Z,7.60
2023-03-11T01:25:44.291Z,4.70
2023-03-11T01:28:12.972Z,5.40
2023-03-11T01:30:41.701Z,5.00
2023-03-11T01:33:15.011Z,6.00
2023-03-11T01:35:43.877Z,5.70
2023-03-11T01:38:11.904Z,6.40
2023-03-11T01:40:42.368Z,5.50
2023-03-11T01:43:55.348Z,4.60
2023-03-11T01:46:45.414Z,4.50
2023-03-11T01:49:13.833Z,5.00
2023-03-11T01:51:43.755Z,5.40
2023-03-11T01:54:19.370Z,5.40
2023-03-11T01:56:47.271Z,5.40
2023-03-11T01:59:22.708Z,5.00
2023-03-11T02:01:55.725Z,4.60
2023-03-11T02:04:24.540Z,6.90
2023-03-11T02:06:56.548Z,4.40
2023-03-11T02:09:27.198Z,4.80
2023-03-11T02:11:56.293Z,4.80
2023-03-11T02:14:24.943Z,5.40
2023-03-11T02:16:54.158Z,6.30
2023-03-11T02:19:31.021Z,5.00
2023-03-11T02:21:58.906Z,5.60
2023-03-11T02:24:59.499Z,4.80
2023-03-11T02:27:31.752Z,5.20
2023-03-11T02:30:01.116Z,4.50
2023-03-11T02:32:30.047Z,5.30
2023-03-11T02:34:58.181Z,4.40
2023-03-11T02:37:26.453Z,5.30
2023-03-11T02:40:18.383Z,5.00
2023-03-11T02:42:46.388Z,4.30
2023-03-11T02:45:15.589Z,5.00
2023-03-11T02:47:43.985Z,5.30
2023-03-11T02:50:15.670Z,5.30
2023-03-11T02:52:44.060Z,5.40
2023-03-11T02:55:12.194Z,5.20
2023-03-11T02:57:41.138Z,5.30
2023-03-11T03:00:15.858Z,5.50
2023-03-11T03:02:53.454Z,4.50
2023-03-11T03:05:22.015Z,4.90
2023-03-11T03:07:51.477Z,5.40
2023-03-11T03:10:20.890Z,5.00
2023-03-11T03:12:56.003Z,4.60
2023-03-11T03:15:25.893Z,5.80
2023-03-11T03:17:55.329Z,5.60
2023-03-11T03:20:30.379Z,5.30
2023-03-11T03:23:00.502Z,6.70
2023-03-11T03:28:19.930Z,5.60
2023-03-11T03:30:48.577Z,5.10
2023-03-11T03:33:18.727Z,5.10
2023-03-11T03:35:47.911Z,5.60
2023-03-11T03:38:22.495Z,5.70
2023-03-11T03:40:51.347Z,4.90
2023-03-11T03:43:21.061Z,4.40
2023-03-11T03:46:01.051Z,5.40
2023-03-11T03:48:31.902Z,5.60
2023-03-11T03:51:07.957Z,5.30
2023-03-11T03:53:36.493Z,4.40
2023-03-11T03:56:10.558Z,5.30
2023-03-11T03:58:39.340Z,4.30
2023-03-11T04:01:08.068Z,4.80
2023-03-11T04:03:38.239Z,5.20
2023-03-11T04:06:20.192Z,4.90
2023-03-11T04:08:51.342Z,5.60
2023-03-11T04:11:20.832Z,5.10
2023-03-11T04:13:49.664Z,6.20
2023-03-11T04:16:21.976Z,6.40
2023-03-11T04:18:50.993Z,5.00
2023-03-11T04:21:19.719Z,5.80
2023-03-11T04:23:53.263Z,6.40
2023-03-11T04:26:22.614Z,5.10
2023-03-11T04:28:50.545Z,6.60
2023-03-11T04:31:19.337Z,6.10
2023-03-11T04:33:50.206Z,5.20
2023-03-11T04:36:18.225Z,5.30
2023-03-11T04:38:46.775Z,4.70
2023-03-11T04:41:15.221Z,5.20
2023-03-11T04:43:43.624Z,5.20
2023-03-11T04:46:11.808Z,4.80
2023-03-11T04:48:41.534Z,5.70
2023-03-11T04:51:10.251Z,4.40
2023-03-11T04:53:39.296Z,5.60
2023-03-11T04:56:08.027Z,5.10
2023-03-11T04:58:37.791Z,4.90
2023-03-11T05:01:06.484Z,4.60
2023-03-11T05:03:34.685Z,4.80
2023-03-11T05:06:05.675Z,4.70
2023-03-11T05:08:33.920Z,5.40
2023-03-11T05:11:02.435Z,4.90
2023-03-11T05:13:34.349Z,5.10
2023-03-11T05:16:04.467Z,5.20
2023-03-11T05:18:33.018Z,5.60
2023-03-11T05:21:01.631Z,5.20
2023-03-11T05:23:31.930Z,5.50
2023-03-11T05:26:00.445Z,5.40
2023-03-11T05:28:29.438Z,4.70
2023-03-11T05:30:57.543Z,6.50
2023-03-11T05:33:25.985Z,5.10
2023-03-11T05:35:54.662Z,5.30
2023-03-11T05:38:22.791Z,5.30
2023-03-11T05:40:51.144Z,5.40
2023-03-11T05:43:19.307Z,4.80
2023-03-11T05:45:52.131Z,4.40
2023-03-11T05:48:20.198Z,5.50
2023-03-11T05:50:48.438Z,7.20
2023-03-11T05:53:17.125Z,5.90
2023-03-11T05:55:45.519Z,5.40
2023-03-11T05:58:14.566Z,6.10
2023-03-11T06:00:43.403Z,5.50
2023-03-11T06:03:19.308Z,5.00
2023-03-11T06:05:48.448Z,5.40
2023-03-11T06:08:16.757Z,5.10
2023-03-11T06:10:46.829Z,4.60
2023-03-11T06:13:18.134Z,5.70
2023-03-11T06:15:53.683Z,5.50
2023-03-11T06:18:28.487Z,5.50
2023-03-11T06:20:58.458Z,6.00
2023-03-11T06:23:27.112Z,5.50
2023-03-11T06:26:00.038Z,6.20
2023-03-11T06:28:29.487Z,5.90
2023-03-11T06:31:06.361Z,5.20
2023-03-11T06:33:34.865Z,5.60
2023-03-11T06:36:04.256Z,5.50
2023-03-11T06:38:38.792Z,4.90
2023-03-11T06:41:07.313Z,5.80
2023-03-11T06:43:36.239Z,5.40
2023-03-11T06:46:21.694Z,5.70
2023-03-11T06:48:53.622Z,5.60
2023-03-11T06:51:22.413Z,7.00
2023-03-11T06:53:52.565Z,6.30
2023-03-11T06:56:24.036Z,5.50
2023-03-11T06:59:02.261Z,7.10
2023-03-11T07:01:32.728Z,6.30
2023-03-11T07:04:02.379Z,6.90
2023-03-11T07:06:31.052Z,6.10
2023-03-11T07:09:04.936Z,5.50
2023-03-11T07:11:34.025Z,7.60
2023-03-11T07:14:08.051Z,6.10
2023-03-11T07:16:38.630Z,5.90
2023-03-11T07:19:10.617Z,5.70
2023-03-11T07:21:38.872Z,5.80
2023-03-11T07:24:07.439Z,6.60
2023-03-11T07:26:36.393Z,6.30
2023-03-11T07:29:04.716Z,7.20
2023-03-11T07:31:34.516Z,6.20
2023-03-11T07:34:05.932Z,5.30
2023-03-11T07:36:33.896Z,7.40
2023-03-11T07:39:04.422Z,6.90
2023-03-11T07:41:34.432Z,7.40
2023-03-11T07:44:06.173Z,7.30
2023-03-11T07:46:34.881Z,6.50
2023-03-11T07:49:03.978Z,5.40
2023-03-11T07:51:34.096Z,6.40
2023-03-11T07:54:02.228Z,6.10
2023-03-11T07:56:32.180Z,6.90
2023-03-11T07:59:00.895Z,6.90
2023-03-11T08:01:36.598Z,6.00
2023-03-11T08:04:06.014Z,5.90
2023-03-11T08:06:35.517Z,6.70
2023-03-11T08:09:05.954Z,6.60
2023-03-11T08:11:35.152Z,7.20
2023-03-11T08:14:03.513Z,7.90
2023-03-11T08:16:33.650Z,8.80
2023-03-11T08:19:01.926Z,6.70
2023-03-11T08:21:32.353Z,7.70
2023-03-11T08:24:01.481Z,7.30
2023-03-11T08:26:30.342Z,7.40
2023-03-11T08:29:01.076Z,7.50
2023-03-11T08:31:31.493Z,7.00
2023-03-11T08:34:02.685Z,7.90
2023-03-11T08:36:36.245Z,6.50
2023-03-11T08:39:04.726Z,12.00
2023-03-11T08:41:33.240Z,8.50
2023-03-11T08:44:01.481Z,6.80
2023-03-11T08:46:32.311Z,7.20
2023-03-11T08:49:01.359Z,7.40
2023-03-11T08:51:32.502Z,8.80
2023-03-11T08:54:02.386Z,7.50
2023-03-11T08:56:31.092Z,7.90
2023-03-11T08:58:59.633Z,8.10
2023-03-11T09:01:29.783Z,10.00
2023-03-11T09:03:58.080Z,7.80
2023-03-11T09:06:30.597Z,9.20
2023-03-11T09:09:01.239Z,8.30
2023-03-11T09:11:29.524Z,10.60
2023-03-11T09:14:02.122Z,11.00
2023-03-11T09:16:30.476Z,9.30
2023-03-11T09:19:00.490Z,11.10
2023-03-11T09:21:29.405Z,9.30
2023-03-11T09:23:57.549Z,7.90
2023-03-11T09:26:25.634Z,8.90
2023-03-11T09:28:53.826Z,8.10
2023-03-11T09:31:22.051Z,8.90
2023-03-11T09:33:52.298Z,9.40
2023-03-11T09:36:21.251Z,8.00
2023-03-11T09:38:49.332Z,7.60
2023-03-11T09:41:18.871Z,8.10
2023-03-11T09:43:56.048Z,8.40
2023-03-11T09:46:34.691Z,8.70
2023-03-11T09:49:21.584Z,9.50
2023-03-11T09:52:13.162Z,10.50
2023-03-11T09:54:49.713Z,8.90
2023-03-11T09:57:29.654Z,9.60
2023-03-11T09:59:57.969Z,8.40
2023-03-11T10:02:29.639Z,9.60
2023-03-11T10:05:09.877Z,8.80
2023-03-11T10:07:44.900Z,9.80
2023-03-11T10:10:14.023Z,10.60
2023-03-11T10:13:00.840Z,9.30
2023-03-11T10:15:49.056Z,10.40
2023-03-11T10:18:38.055Z,10.70
2023-03-11T10:21:41.950Z,9.80
2023-03-11T10:24:33.181Z,8.30
2023-03-11T10:27:20.196Z,9.90
2023-03-11T10:30:02.859Z,9.00
2023-03-11T10:32:41.384Z,8.80
2023-03-11T10:35:16.976Z,11.60
2023-03-11T10:37:59.793Z,12.20
2023-03-11T10:40:33.570Z,10.30
2023-03-11T10:43:10.025Z,12.10
2023-03-11T10:48:14.911Z,10.20
2023-03-11T10:51:26.990Z,12.90
2023-03-11T10:53:59.088Z,9.80
2023-03-11T10:56:35.049Z,11.10
2023-03-11T10:59:04.610Z,8.80
2023-03-11T11:01:33.026Z,11.70
2023-03-11T11:04:01.345Z,9.70
2023-03-11T11:06:31.625Z,9.50
2023-03-11T11:09:23.653Z,12.60
2023-03-11T11:12:06.822Z,10.80
2023-03-11T11:14:46.655Z,10.40
2023-03-11T11:17:26.577Z,9.70
2023-03-11T11:19:55.188Z,11.90
2023-03-11T11:22:23.557Z,11.20
2023-03-11T11:24:56.223Z,10.20
2023-03-11T11:27:26.088Z,10.80
2023-03-11T11:30:15.866Z,11.00
2023-03-11T11:33:32.537Z,11.00
2023-03-11T11:36:03.306Z,11.00
2023-03-11T11:38:32.999Z,9.90
2023-03-11T11:41:03.172Z,10.00
2023-03-11T11:43:55.341Z,10.70
2023-03-11T11:46:35.072Z,15.40
2023-03-11T11:49:17.377Z,12.60
2023-03-11T11:51:58.787Z,10.60
2023-03-11T11:54:31.535Z,12.10
2023-03-11T11:57:00.182Z,9.70
2023-03-11T11:59:28.213Z,9.90
2023-03-11T12:02:24.847Z,10.50
2023-03-11T12:05:11.920Z,10.90
2023-03-11T12:07:55.445Z,17.30
2023-03-11T12:10:47.472Z,12.70
2023-03-11T12:13:35.700Z,10.40
2023-03-11T12:18:50.663Z,9.80
2023-03-11T12:21:36.119Z,10.50
2023-03-11T12:24:26.235Z,10.70
2023-03-11T12:26:54.384Z,14.90
2023-03-11T12:29:34.370Z,15.20
2023-03-11T12:32:02.894Z,10.90
2023-03-11T12:34:31.432Z,10.70
2023-03-11T12:37:03.505Z,11.10
2023-03-11T12:39:35.295Z,10.80
2023-03-11T12:42:16.426Z,10.70
2023-03-11T12:44:45.338Z,12.00
2023-03-11T12:47:18.599Z,10.80
2023-03-11T12:49:48.913Z,11.90
2023-03-11T12:52:19.254Z,10.60
2023-03-11T12:55:08.603Z,11.20
2023-03-11T12:57:49.974Z,10.10
2023-03-11T13:00:39.038Z,12.70
2023-03-11T13:03:46.077Z,13.70
2023-03-11T13:06:26.556Z,13.00
2023-03-11T13:08:57.451Z,11.40
2023-03-11T13:11:31.815Z,12.30
2023-03-11T13:14:20.072Z,10.40
2023-03-11T13:16:48.700Z,10.00
2023-03-11T13:19:32.222Z,13.90
2023-03-11T13:22:01.821Z,12.10
2023-03-11T13:24:30.209Z,9.40
2023-03-11T13:27:09.963Z,12.80
2023-03-11T13:30:10.451Z,9.90
2023-03-11T13:32:55.089Z,8.40
2023-03-11T13:35:26.774Z,9.40
2023-03-11T13:38:17.710Z,10.00
2023-03-11T13:40:46.488Z,8.50
2023-03-11T13:43:16.205Z,9.90
2023-03-11T13:46:05.981Z,9.20
2023-03-11T13:48:45.126Z,9.00
2023-03-11T13:51:22.718Z,9.40
2023-03-11T13:53:56.721Z,12.40
2023-03-11T13:56:27.126Z,9.50
2023-03-11T13:59:15.762Z,10.20
2023-03-11T14:01:54.740Z,9.10
2023-03-11T14:04:33.503Z,8.30
2023-03-11T14:07:19.337Z,11.50
2023-03-11T14:09:50.382Z,9.80
2023-03-11T14:12:19.183Z,8.30
2023-03-11T14:14:56.368Z,11.80
2023-03-11T14:17:27.569Z,8.30
2023-03-11T14:20:04.776Z,9.90
2023-03-11T14:22:33.871Z,9.60
2023-03-11T14:25:08.709Z,8.50
2023-03-11T14:27:40.204Z,7.80
2023-03-11T14:30:17.423Z,8.10
2023-03-11T14:33:18.306Z,8.50
2023-03-11T14:35:53.695Z,9.70
2023-03-11T14:38:22.846Z,8.80
2023-03-11T14:40:55.100Z,9.00
2023-03-11T14:43:23.694Z,9.80
2023-03-11T14:45:52.727Z,8.20
2023-03-11T14:48:36.424Z,7.90
2023-03-11T14:51:07.397Z,11.10
2023-03-11T14:53:40.520Z,8.00
2023-03-11T14:56:22.015Z,7.70
2023-03-11T14:59:07.323Z,8.00
2023-03-11T15:01:41.081Z,9.40
2023-03-11T15:04:29.441Z,8.30
2023-03-11T15:06:57.512Z,10.20
2023-03-11T15:09:25.636Z,9.50
2023-03-11T15:11:59.216Z,7.40
2023-03-11T15:14:31.804Z,8.10
2023-03-11T15:17:42.601Z,6.80
2023-03-11T15:20:31.006Z,9.10
2023-03-11T15:23:03.880Z,7.60
2023-03-11T15:25:36.214Z,7.20
2023-03-11T15:28:25.308Z,7.50
2023-03-11T15:31:21.251Z,6.70
2023-03-11T15:33:49.815Z,8.00
2023-03-11T15:36:35.178Z,7.80
2023-03-11T15:39:11.430Z,8.40
2023-03-11T15:41:43.498Z,10.30
2023-03-11T15:45:38.477Z,8.60
2023-03-11T15:48:06.533Z,7.10
2023-03-11T15:50:50.569Z,9.80
2023-03-11T15:53:25.330Z,8.00
2023-03-11T15:55:54.122Z,8.10
2023-03-11T15:58:22.083Z,7.70
2023-03-11T16:00:56.039Z,8.10
2023-03-11T16:03:24.332Z,11.10
2023-03-11T16:05:53.612Z,8.30
2023-03-11T16:08:23.132Z,9.30
2023-03-11T16:10:51.351Z,7.70
2023-03-11T16:13:24.610Z,8.20
2023-03-11T16:15:53.177Z,11.30
2023-03-11T16:18:21.751Z,7.60
2023-03-11T16:20:53.499Z,7.00
2023-03-11T16:23:24.248Z,6.90
2023-03-11T16:25:57.162Z,9.30
2023-03-11T16:28:25.677Z,7.90
2023-03-11T16:30:53.677Z,6.80
2023-03-11T16:33:22.415Z,7.10
2023-03-11T16:35:50.651Z,9.20
2023-03-11T16:38:23.226Z,9.80
2023-03-11T16:40:57.907Z,7.70
2023-03-11T16:43:27.607Z,8.40
2023-03-11T16:45:56.375Z,7.00
2023-03-11T16:48:24.703Z,7.50
2023-03-11T16:50:53.821Z,8.10
2023-03-11T16:53:22.091Z,8.10
2023-03-11T16:55:50.465Z,8.80
2023-03-11T16:58:19.364Z,7.00
2023-03-11T17:00:47.533Z,7.20
2023-03-11T17:03:18.244Z,10.40
2023-03-11T17:05:49.314Z,7.10
2023-03-11T17:08:18.506Z,7.20
2023-03-11T17:10:46.902Z,7.80
2023-03-11T17:13:17.741Z,9.60
2023-03-11T17:15:58.932Z,15.00
2023-03-11T17:18:41.004Z,21.80
2023-03-11T17:21:10.652Z,24.50
2023-03-11T17:23:38.526Z,19.50
2023-03-11T17:26:15.966Z,15.70
2023-03-11T17:28:47.124Z,12.30
2023-03-11T17:31:16.288Z,18.30
2023-03-11T17:33:44.999Z,18.70
2023-03-11T17:36:16.049Z,13.70
2023-03-11T17:38:46.781Z,16.50
2023-03-11T17:41:16.983Z,17.50
2023-03-11T17:43:45.079Z,16.90
2023-03-11T17:46:15.536Z,11.70
2023-03-11T17:48:45.113Z,11.90
2023-03-11T17:51:19.653Z,11.60
2023-03-11T17:53:48.444Z,11.30
2023-03-11T17:56:22.011Z,12.70
2023-03-11T17:58:51.831Z,12.90
2023-03-11T18:01:24.963Z,11.10
2023-03-11T18:03:56.286Z,10.00
2023-03-11T18:06:24.736Z,13.60
2023-03-11T18:08:55.261Z,16.20
2023-03-11T18:11:27.027Z,10.40
2023-03-11T18:13:55.519Z,9.60
2023-03-11T18:16:25.801Z,9.80
2023-03-11T18:18:57.584Z,9.00
2023-03-11T18:21:28.062Z,10.60
2023-03-11T18:23:59.808Z,11.00
2023-03-11T18:26:28.935Z,12.90
2023-03-11T18:28:57.546Z,13.00
2023-03-11T18:31:26.703Z,15.00
2023-03-11T18:33:58.947Z,14.70
2023-03-11T18:36:28.926Z,11.20
2023-03-11T18:38:58.232Z,15.30
2023-03-11T18:41:26.855Z,10.50
2023-03-11T18:43:57.547Z,10.10
2023-03-11T18:46:28.477Z,11.50
2023-03-11T18:48:59.421Z,11.80
2023-03-11T18:51:28.699Z,11.50
2023-03-11T18:53:56.895Z,11.90
2023-03-11T18:56:24.965Z,10.40
2023-03-11T18:58:54.167Z,12.60
2023-03-11T19:01:22.237Z,16.30
2023-03-11T19:03:52.237Z,11.20
2023-03-11T19:06:20.350Z,11.20
2023-03-11T19:08:49.587Z,12.20
2023-03-11T19:11:20.165Z,10.80
2023-03-11T19:13:51.099Z,12.70
2023-03-11T19:16:21.631Z,15.10
2023-03-11T19:18:50.533Z,10.00
2023-03-11T19:21:19.030Z,14.40
2023-03-11T19:23:47.176Z,11.70
2023-03-11T19:26:15.034Z,9.80
2023-03-11T19:28:43.210Z,12.30
2023-03-11T19:31:11.421Z,11.10
2023-03-11T19:33:43.245Z,14.00
2023-03-11T19:36:12.509Z,11.10
2023-03-11T19:38:40.702Z,11.10
2023-03-11T19:41:18.710Z,14.40
2023-03-11T19:43:47.559Z,10.50
2023-03-11T19:46:18.272Z,13.30
2023-03-11T19:48:46.493Z,13.10
2023-03-11T19:51:14.509Z,11.90
2023-03-11T19:53:42.788Z,10.70
2023-03-11T19:56:17.295Z,11.00
2023-03-11T19:58:45.294Z,12.30
2023-03-11T20:01:16.115Z,13.20
2023-03-11T20:03:44.557Z,9.90
2023-03-11T20:06:16.397Z,11.80
2023-03-11T20:08:50.878Z,9.80
2023-03-11T20:11:20.707Z,10.60
2023-03-11T20:13:49.148Z,11.50
2023-03-11T20:16:18.931Z,10.50
2023-03-11T20:18:53.958Z,11.80
2023-03-11T20:21:22.066Z,10.60
2023-03-11T20:23:50.678Z,12.00
2023-03-11T20:26:19.413Z,9.50
2023-03-11T20:28:48.005Z,9.50
2023-03-11T20:31:19.790Z,11.00
2023-03-11T20:33:48.947Z,9.60
2023-03-11T20:36:21.175Z,10.00
2023-03-11T20:38:50.612Z,10.70
2023-03-11T20:41:19.254Z,11.30
2023-03-11T20:43:47.309Z,9.60
2023-03-11T20:46:16.702Z,9.00
2023-03-11T20:48:46.303Z,10.50
2023-03-11T20:51:16.506Z,9.50
2023-03-11T20:54:03.549Z,9.00
2023-03-11T20:56:32.217Z,8.90
2023-03-11T20:59:01.111Z,10.60
2023-03-11T21:01:30.411Z,10.30
2023-03-11T21:04:01.595Z,9.60
2023-03-11T21:06:38.424Z,9.80
2023-03-11T21:09:14.123Z,10.10
2023-03-11T21:11:42.405Z,10.60
2023-03-11T21:14:10.762Z,11.70
2023-03-11T21:16:42.805Z,9.00
2023-03-11T21:19:13.544Z,7.10
2023-03-11T21:21:41.805Z,8.20
2023-03-11T21:24:11.037Z,8.20
2023-03-11T21:26:39.645Z,8.70
2023-03-11T21:29:08.634Z,9.00
2023-03-11T21:31:36.774Z,9.00
2023-03-11T21:34:05.058Z,8.00
2023-03-11T21:36:38.363Z,9.40
2023-03-11T21:39:07.279Z,7.20
2023-03-11T21:41:35.476Z,8.40
2023-03-11T21:44:06.199Z,7.30
2023-03-11T21:46:34.236Z,8.00
2023-03-11T21:49:05.790Z,8.50
2023-03-11T21:51:35.459Z,9.00
2023-03-11T21:54:05.483Z,9.20
2023-03-11T21:56:35.217Z,8.10
2023-03-11T21:59:03.982Z,7.80
2023-03-11T22:01:35.260Z,11.10
2023-03-11T22:04:03.627Z,7.20
2023-03-11T22:06:33.444Z,7.10
2023-03-11T22:09:01.728Z,7.50
2023-03-11T22:11:31.604Z,8.60
2023-03-11T22:14:01.086Z,5.80
2023-03-11T22:16:30.424Z,7.70
2023-03-11T22:19:00.200Z,6.70
2023-03-11T22:21:28.289Z,6.70
2023-03-11T22:23:56.470Z,7.60
2023-03-11T22:26:24.365Z,6.70
2023-03-11T22:28:52.420Z,7.50
2023-03-11T22:31:20.611Z,7.00
2023-03-11T22:33:49.435Z,7.20
2023-03-11T22:36:17.354Z,6.40
2023-03-11T22:38:46.205Z,5.90
2023-03-11T22:41:19.387Z,7.80
2023-03-11T22:43:47.507Z,6.00
2023-03-11T22:46:15.539Z,5.60
2023-03-11T22:48:43.593Z,5.80
2023-03-11T22:51:15.083Z,6.40
2023-03-11T22:53:43.678Z,5.30
2023-03-11T22:56:13.733Z,6.20
2023-03-11T22:58:42.244Z,7.00
2023-03-11T23:01:10.453Z,5.20
2023-03-11T23:03:38.986Z,4.60
2023-03-11T23:06:08.560Z,5.60
2023-03-11T23:08:36.851Z,5.60
2023-03-11T23:11:08.345Z,6.30
2023-03-11T23:13:37.669Z,4.90
2023-03-11T23:16:07.455Z,5.70
2023-03-11T23:18:38.243Z,6.70
2023-03-11T23:21:24.038Z,6.00
2023-03-11T23:23:52.026Z,5.10
2023-03-11T23:26:20.397Z,5.50
2023-03-11T23:28:51.192Z,5.80
2023-03-11T23:31:20.427Z,6.70
2023-03-11T23:33:49.685Z,4.80
2023-03-11T23:36:19.985Z,5.30
2023-03-11T23:38:54.679Z,5.20
2023-03-11T23:41:23.829Z,4.70
2023-03-11T23:43:51.907Z,5.60
2023-03-11T23:46:20.147Z,4.60
2023-03-11T23:48:48.413Z,4.20
2023-03-11T23:51:16.417Z,4.30
2023-03-11T23:53:45.614Z,4.60
2023-03-11T23:56:17.143Z,5.40
2023-03-11T23:58:46.230Z,4.20
